createdAt,value
2023-04-12T00:01:56.697Z,23.67
2023-04-12T00:04:49.597Z,27.05
2023-04-12T00:07:39.371Z,22.23
2023-04-12T00:10:28.322Z,22.70
2023-04-12T00:13:17.751Z,25.10
2023-04-12T00:16:07.423Z,21.95
2023-04-12T00:18:57.454Z,23.95
2023-04-12T00:21:47.886Z,23.48
2023-04-12T00:24:36.924Z,22.45
2023-04-12T00:27:25.929Z,20.20
2023-04-12T00:30:14.773Z,20.63
2023-04-12T00:33:05.022Z,17.60
2023-04-12T00:35:53.854Z,18.30
2023-04-12T00:38:45.949Z,20.40
2023-04-12T00:41:37.517Z,18.85
2023-04-12T00:44:26.527Z,20.63
2023-04-12T00:47:16.368Z,19.40
2023-04-12T00:50:07.086Z,18.38
2023-04-12T00:52:58.730Z,17.83
2023-04-12T00:55:50.050Z,16.45
2023-04-12T00:58:38.783Z,19.02
2023-04-12T01:01:28.370Z,17.60
2023-04-12T01:04:18.752Z,16.83
2023-04-12T01:07:16.452Z,18.13
2023-04-12T01:10:12.710Z,18.55
2023-04-12T01:13:12.051Z,18.08
2023-04-12T01:16:11.342Z,19.27
2023-04-12T01:19:03.927Z,19.10
2023-04-12T01:22:02.630Z,22.40
2023-04-12T01:25:16.452Z,18.88
2023-04-12T01:28:08.477Z,23.27
2023-04-12T01:30:57.952Z,19.27
2023-04-12T01:33:48.514Z,19.45
2023-04-12T01:36:40.680Z,18.83
2023-04-12T01:39:31.058Z,18.75
2023-04-12T01:42:20.888Z,18.20
2023-04-12T01:45:12.044Z,17.30
2023-04-12T01:48:01.540Z,16.63
2023-04-12T01:51:00.080Z,16.25
2023-04-12T01:53:56.332Z,14.15
2023-04-12T01:56:50.171Z,13.40
2023-04-12T01:59:43.430Z,11.63
2023-04-12T02:02:36.684Z,12.85
2023-04-12T02:05:26.252Z,12.32
2023-04-12T02:08:15.693Z,13.00
2023-04-12T02:11:10.003Z,13.80
2023-04-12T02:13:59.197Z,10.45
2023-04-12T02:16:50.860Z,11.18
2023-04-12T02:19:41.190Z,14.30
2023-04-12T02:22:30.623Z,11.60
2023-04-12T02:25:19.558Z,12.35
2023-04-12T02:28:08.582Z,12.25
2023-04-12T02:30:57.385Z,11.80
2023-04-12T02:33:47.102Z,13.20
2023-04-12T02:36:38.067Z,14.32
2023-04-12T02:39:29.319Z,15.93
2023-04-12T02:42:19.426Z,14.23
2023-04-12T02:45:12.146Z,13.93
2023-04-12T02:48:02.547Z,14.90
2023-04-12T02:50:51.886Z,16.40
2023-04-12T02:53:45.604Z,16.10
2023-04-12T02:56:38.878Z,15.38
2023-04-12T02:59:44.236Z,17.65
2023-04-12T03:02:38.385Z,23.05
2023-04-12T03:05:29.738Z,16.63
2023-04-12T03:08:18.919Z,15.45
2023-04-12T03:11:15.574Z,17.27
2023-04-12T03:14:04.478Z,16.52
2023-04-12T03:16:54.053Z,18.13
2023-04-12T03:19:42.753Z,16.33
2023-04-12T03:22:32.467Z,17.33
2023-04-12T03:25:22.001Z,17.33
2023-04-12T03:28:18.205Z,17.65
2023-04-12T03:31:13.051Z,18.20
2023-04-12T03:34:04.548Z,17.60
2023-04-12T03:36:53.924Z,16.92
2023-04-12T03:39:59.636Z,18.85
2023-04-12T03:42:48.363Z,20.45
2023-04-12T03:45:39.022Z,18.58
2023-04-12T03:48:29.204Z,17.90
2023-04-12T03:51:18.327Z,18.90
2023-04-12T03:54:07.123Z,21.75
2023-04-12T03:57:05.520Z,21.25
2023-04-12T04:00:10.004Z,20.05
2023-04-12T04:03:27.326Z,20.50
2023-04-12T04:06:29.933Z,21.42
2023-04-12T04:09:18.673Z,18.00
2023-04-12T04:12:08.084Z,19.63
2023-04-12T04:15:01.313Z,21.85
2023-04-12T04:17:53.617Z,23.65
2023-04-12T04:20:43.992Z,22.52
2023-04-12T04:23:38.623Z,21.13
2023-04-12T04:26:32.500Z,24.63
2023-04-12T04:29:30.148Z,20.67
2023-04-12T04:32:20.150Z,20.38
2023-04-12T04:35:10.012Z,23.45
2023-04-12T04:38:15.965Z,19.58
2023-04-12T04:41:06.225Z,23.58
2023-04-12T04:44:10.821Z,22.30
2023-04-12T04:47:06.983Z,27.05
2023-04-12T04:49:56.560Z,24.65
2023-04-12T04:52:48.762Z,22.25
2023-04-12T04:55:39.032Z,25.95
2023-04-12T04:58:28.515Z,22.50
2023-04-12T05:01:17.987Z,24.98
2023-04-12T05:04:10.005Z,27.48
2023-04-12T05:06:59.024Z,23.60
2023-04-12T05:09:48.301Z,29.50
2023-04-12T05:12:39.734Z,23.08
2023-04-12T05:15:31.760Z,25.42
2023-04-12T05:18:23.624Z,25.85
2023-04-12T05:21:12.663Z,28.27
2023-04-12T05:24:02.328Z,25.58
2023-04-12T05:26:53.889Z,27.17
2023-04-12T05:29:44.242Z,32.45
2023-04-12T05:32:33.410Z,31.15
2023-04-12T05:35:22.726Z,30.33
2023-04-12T05:38:14.906Z,31.05
2023-04-12T05:41:06.482Z,34.08
2023-04-12T05:43:59.261Z,34.10
2023-04-12T05:46:49.739Z,28.88
2023-04-12T05:49:38.783Z,29.52
2023-04-12T05:52:31.022Z,26.13
2023-04-12T05:55:20.233Z,30.13
2023-04-12T05:58:08.968Z,26.60
2023-04-12T06:00:57.947Z,30.38
2023-04-12T06:03:49.506Z,29.25
2023-04-12T06:06:38.365Z,27.10
2023-04-12T06:09:27.946Z,30.63
2023-04-12T06:12:17.272Z,31.33
2023-04-12T06:15:08.034Z,28.10
2023-04-12T06:17:58.350Z,25.95
2023-04-12T06:20:48.584Z,27.33
2023-04-12T06:23:37.483Z,28.80
2023-04-12T06:26:27.008Z,27.40
2023-04-12T06:29:17.317Z,27.55
2023-04-12T06:32:08.210Z,27.80
2023-04-12T06:34:57.587Z,27.23
2023-04-12T06:37:47.895Z,29.90
2023-04-12T06:40:36.694Z,28.45
2023-04-12T06:43:25.562Z,27.02
2023-04-12T06:46:15.747Z,29.17
2023-04-12T06:49:04.407Z,30.35
2023-04-12T06:51:53.218Z,30.23
2023-04-12T06:54:44.100Z,27.08
2023-04-12T06:57:33.231Z,26.50
2023-04-12T07:00:23.123Z,28.80
2023-04-12T07:03:12.235Z,27.35
2023-04-12T07:06:10.631Z,27.08
2023-04-12T07:09:06.420Z,29.42
2023-04-12T07:11:56.613Z,30.15
2023-04-12T07:14:45.347Z,30.80
2023-04-12T07:17:34.218Z,26.02
2023-04-12T07:20:23.127Z,26.65
2023-04-12T07:23:12.002Z,25.33
2023-04-12T07:26:01.129Z,28.35
2023-04-12T07:28:51.592Z,28.15
2023-04-12T07:31:40.510Z,31.00
2023-04-12T07:34:29.522Z,38.78
2023-04-12T07:37:19.071Z,25.45
2023-04-12T07:40:09.456Z,26.77
2023-04-12T07:42:58.219Z,28.33
2023-04-12T07:45:48.653Z,28.60
2023-04-12T07:48:37.443Z,25.55
2023-04-12T07:51:29.655Z,26.02
2023-04-12T07:54:18.541Z,24.98
2023-04-12T07:57:08.906Z,23.88
2023-04-12T07:59:57.815Z,21.50
2023-04-12T08:02:48.269Z,24.35
2023-04-12T08:05:37.296Z,24.95
2023-04-12T08:08:26.326Z,22.08
2023-04-12T08:11:15.160Z,27.77
2023-04-12T08:14:04.334Z,28.42
2023-04-12T08:16:53.241Z,24.20
2023-04-12T08:19:43.467Z,25.38
2023-04-12T08:22:32.471Z,27.98
2023-04-12T08:25:21.655Z,23.50
2023-04-12T08:28:10.467Z,24.73
2023-04-12T08:30:59.898Z,23.90
2023-04-12T08:33:48.695Z,25.25
2023-04-12T08:36:38.900Z,26.30
2023-04-12T08:39:28.108Z,24.15
2023-04-12T08:42:17.462Z,26.63
2023-04-12T08:45:07.583Z,25.23
2023-04-12T08:47:57.376Z,25.73
2023-04-12T08:50:50.625Z,26.13
2023-04-12T08:53:41.292Z,26.05
2023-04-12T08:56:31.273Z,26.70
2023-04-12T08:59:20.233Z,25.42
2023-04-12T09:02:09.200Z,26.42
2023-04-12T09:04:58.469Z,25.42
2023-04-12T09:07:47.805Z,26.90
2023-04-12T09:10:39.421Z,25.55
2023-04-12T09:13:35.595Z,24.75
2023-04-12T09:16:45.643Z,22.73
2023-04-12T09:19:35.820Z,24.42
2023-04-12T09:22:35.481Z,23.05
2023-04-12T09:25:45.776Z,24.85
2023-04-12T09:28:34.678Z,22.23
2023-04-12T09:31:23.650Z,25.48
2023-04-12T09:34:12.564Z,25.83
2023-04-12T09:37:01.771Z,31.10
2023-04-12T09:40:01.362Z,31.98
2023-04-12T09:42:55.147Z,26.27
2023-04-12T09:45:43.968Z,26.83
2023-04-12T09:48:33.599Z,25.05
2023-04-12T09:51:29.725Z,28.10
2023-04-12T09:54:18.722Z,26.50
2023-04-12T09:57:09.902Z,27.50
2023-04-12T10:00:05.602Z,22.15
2023-04-12T10:03:00.238Z,27.63
2023-04-12T10:05:49.319Z,28.30
2023-04-12T10:08:39.232Z,23.55
2023-04-12T10:11:29.532Z,26.85
2023-04-12T10:14:19.769Z,24.08
2023-04-12T10:17:12.276Z,26.60
2023-04-12T10:20:01.734Z,24.95
2023-04-12T10:22:52.122Z,24.38
2023-04-12T10:25:47.721Z,23.75
2023-04-12T10:28:36.632Z,23.25
2023-04-12T10:31:30.032Z,20.95
2023-04-12T10:34:25.601Z,23.80
2023-04-12T10:37:14.521Z,22.80
2023-04-12T10:40:05.136Z,23.45
2023-04-12T10:43:27.906Z,22.60
2023-04-12T10:46:54.064Z,22.60
2023-04-12T10:50:21.373Z,21.45
2023-04-12T10:53:25.343Z,19.38
2023-04-12T10:56:36.519Z,21.77
2023-04-12T10:59:34.345Z,18.45
2023-04-12T11:02:26.783Z,20.17
2023-04-12T11:05:21.370Z,19.95
2023-04-12T11:08:13.254Z,20.25
2023-04-12T11:11:19.467Z,18.45
2023-04-12T11:14:11.369Z,23.23
2023-04-12T11:17:22.978Z,23.30
2023-04-12T11:20:13.685Z,21.42
2023-04-12T11:23:05.958Z,20.75
2023-04-12T11:25:54.826Z,20.58
2023-04-12T11:28:43.705Z,21.00
2023-04-12T11:31:32.552Z,19.50
2023-04-12T11:34:21.999Z,20.92
2023-04-12T11:37:11.617Z,19.90
2023-04-12T11:40:02.136Z,18.75
2023-04-12T11:42:51.217Z,17.63
2023-04-12T11:45:40.087Z,17.20
2023-04-12T11:48:29.501Z,17.85
2023-04-12T11:51:25.409Z,17.08
2023-04-12T11:54:14.983Z,19.15
2023-04-12T11:57:05.871Z,16.83
2023-04-12T11:59:55.598Z,17.67
2023-04-12T12:02:55.854Z,16.20
2023-04-12T12:05:53.728Z,19.70
2023-04-12T12:08:42.833Z,17.50
2023-04-12T12:11:33.156Z,19.27
2023-04-12T12:14:24.585Z,18.90
2023-04-12T12:17:15.410Z,17.50
2023-04-12T12:20:04.780Z,17.33
2023-04-12T12:22:53.843Z,17.80
2023-04-12T12:25:48.272Z,17.98
2023-04-12T12:28:38.511Z,19.70
2023-04-12T12:31:29.580Z,19.02
2023-04-12T12:34:19.867Z,16.20
2023-04-12T12:37:14.662Z,15.13
2023-04-12T12:40:13.721Z,16.63
2023-04-12T12:43:02.716Z,17.88
2023-04-12T12:45:51.590Z,18.50
2023-04-12T12:48:42.654Z,14.98
2023-04-12T12:51:31.705Z,17.20
2023-04-12T12:54:36.560Z,15.80
2023-04-12T12:57:28.233Z,21.10
2023-04-12T13:00:18.189Z,16.35
2023-04-12T13:03:07.579Z,19.05
2023-04-12T13:05:58.463Z,19.30
2023-04-12T13:08:47.646Z,19.00
2023-04-12T13:11:36.714Z,18.50
2023-04-12T13:14:25.407Z,15.52
2023-04-12T13:17:14.183Z,17.92
2023-04-12T13:20:04.497Z,14.68
2023-04-12T13:22:55.252Z,18.48
2023-04-12T13:25:44.162Z,15.25
2023-04-12T13:28:33.235Z,13.57
2023-04-12T13:31:22.037Z,14.30
2023-04-12T13:34:10.986Z,18.90
2023-04-12T13:37:00.002Z,17.70
2023-04-12T13:39:52.789Z,15.85
2023-04-12T13:42:41.972Z,14.05
2023-04-12T13:45:32.820Z,16.52
2023-04-12T13:48:23.480Z,13.05
2023-04-12T13:51:12.334Z,15.68
2023-04-12T13:54:02.574Z,14.93
2023-04-12T13:56:52.708Z,15.50
2023-04-12T13:59:41.666Z,14.50
2023-04-12T14:02:31.662Z,14.80
2023-04-12T14:05:20.891Z,14.57
2023-04-12T14:08:09.732Z,16.00
2023-04-12T14:10:58.530Z,14.82
2023-04-12T14:13:48.690Z,13.93
2023-04-12T14:16:37.459Z,17.33
2023-04-12T14:19:26.654Z,15.85
2023-04-12T14:22:15.503Z,15.32
2023-04-12T14:25:04.394Z,13.73
2023-04-12T14:27:53.281Z,20.02
2023-04-12T14:30:43.842Z,15.70
2023-04-12T14:33:33.253Z,17.98
2023-04-12T14:36:22.139Z,16.02
2023-04-12T14:39:13.261Z,14.32
2023-04-12T14:42:04.199Z,13.73
2023-04-12T14:44:53.336Z,15.18
2023-04-12T14:47:44.165Z,15.23
2023-04-12T14:50:33.558Z,15.77
2023-04-12T14:53:23.180Z,17.10
2023-04-12T14:56:23.813Z,13.95
2023-04-12T14:59:13.665Z,14.52
2023-04-12T15:02:02.764Z,16.92
2023-04-12T15:04:53.346Z,18.08
2023-04-12T15:07:42.850Z,16.75
2023-04-12T15:10:32.216Z,16.48
2023-04-12T15:13:25.032Z,17.80
2023-04-12T15:16:16.429Z,17.77
2023-04-12T15:19:13.266Z,15.10
2023-04-12T15:22:08.004Z,17.00
2023-04-12T15:24:58.366Z,15.70
2023-04-12T15:27:47.286Z,17.38
2023-04-12T15:30:36.573Z,15.68
2023-04-12T15:33:26.290Z,16.90
2023-04-12T15:36:16.800Z,19.08
2023-04-12T15:39:07.268Z,15.02
2023-04-12T15:41:56.716Z,14.40
2023-04-12T15:44:46.785Z,15.10
2023-04-12T15:47:35.705Z,15.18
2023-04-12T15:50:24.538Z,14.82
2023-04-12T15:53:13.689Z,15.95
2023-04-12T15:56:04.620Z,15.57
2023-04-12T15:58:54.147Z,14.98
2023-04-12T16:01:44.694Z,13.75
2023-04-12T16:04:34.456Z,15.45
2023-04-12T16:07:23.261Z,16.05
2023-04-12T16:10:12.874Z,14.73
2023-04-12T16:13:05.093Z,17.65
2023-04-12T16:15:53.826Z,17.15
2023-04-12T16:18:43.862Z,13.88
2023-04-12T16:21:34.196Z,14.90
2023-04-12T16:24:22.960Z,15.82
2023-04-12T16:27:11.743Z,14.73
2023-04-12T16:30:04.528Z,17.55
2023-04-12T16:32:53.580Z,15.75
2023-04-12T16:35:50.633Z,16.08
2023-04-12T16:38:39.596Z,19.98
2023-04-12T16:41:28.572Z,18.60
2023-04-12T16:44:20.630Z,20.67
2023-04-12T16:47:11.002Z,19.45
2023-04-12T16:50:00.131Z,20.35
2023-04-12T16:52:48.959Z,20.10
2023-04-12T16:55:41.395Z,17.15
2023-04-12T16:58:30.355Z,20.27
2023-04-12T17:01:19.548Z,18.05
2023-04-12T17:04:10.565Z,19.02
2023-04-12T17:06:59.528Z,23.10
2023-04-12T17:09:48.346Z,19.30
2023-04-12T17:12:37.064Z,19.58
2023-04-12T17:15:26.891Z,23.60
2023-04-12T17:18:15.806Z,20.75
2023-04-12T17:21:06.600Z,22.67
2023-04-12T17:23:56.343Z,20.33
2023-04-12T17:26:46.755Z,20.58
2023-04-12T17:29:35.794Z,19.50
2023-04-12T17:32:24.658Z,23.25
2023-04-12T17:35:14.463Z,23.02
2023-04-12T17:38:05.102Z,20.67
2023-04-12T17:40:54.107Z,29.80
2023-04-12T17:43:43.065Z,21.00
2023-04-12T17:46:33.226Z,16.88
2023-04-12T17:49:22.475Z,20.92
2023-04-12T17:52:11.867Z,19.77
2023-04-12T17:55:02.326Z,20.10
2023-04-12T17:57:53.573Z,19.95
2023-04-12T18:00:46.357Z,19.50
2023-04-12T18:03:35.652Z,20.92
2023-04-12T18:06:24.641Z,19.73
2023-04-12T18:09:14.183Z,19.08
2023-04-12T18:12:05.190Z,18.35
2023-04-12T18:14:54.388Z,20.20
2023-04-12T18:17:44.202Z,19.15
2023-04-12T18:20:33.958Z,21.05
2023-04-12T18:23:22.890Z,17.83
2023-04-12T18:26:11.697Z,18.17
2023-04-12T18:29:02.130Z,17.20
2023-04-12T18:31:51.164Z,16.00
2023-04-12T18:34:39.978Z,16.10
2023-04-12T18:37:29.009Z,15.20
2023-04-12T18:40:18.281Z,24.95
2023-04-12T18:43:08.159Z,19.38
2023-04-12T18:45:58.451Z,17.60
2023-04-12T18:48:49.303Z,17.73
2023-04-12T18:51:38.523Z,22.58
2023-04-12T18:54:29.119Z,15.98
2023-04-12T18:57:18.701Z,14.75
2023-04-12T19:00:13.837Z,14.60
2023-04-12T19:03:06.609Z,16.73
2023-04-12T19:05:55.909Z,16.02
2023-04-12T19:08:45.345Z,15.38
2023-04-12T19:11:37.119Z,16.13
2023-04-12T19:14:28.350Z,16.88
2023-04-12T19:17:17.398Z,18.60
2023-04-12T19:20:09.421Z,20.92
2023-04-12T19:22:58.608Z,16.58
2023-04-12T19:25:47.652Z,16.88
2023-04-12T19:28:36.549Z,16.98
2023-04-12T19:31:26.058Z,17.48
2023-04-12T19:34:17.686Z,17.60
2023-04-12T19:37:08.848Z,17.65
2023-04-12T19:39:58.442Z,17.98
2023-04-12T19:42:48.614Z,20.45
2023-04-12T19:45:38.108Z,16.27
2023-04-12T19:48:27.587Z,20.00
2023-04-12T19:51:16.428Z,16.27
2023-04-12T19:54:09.989Z,17.48
2023-04-12T19:56:59.039Z,17.73
2023-04-12T19:59:47.987Z,17.40
2023-04-12T20:02:36.906Z,19.63
2023-04-12T20:05:26.712Z,25.35
2023-04-12T20:08:15.980Z,17.77
2023-04-12T20:11:06.476Z,16.77
2023-04-12T20:13:55.362Z,17.75
2023-04-12T20:16:47.553Z,18.15
2023-04-12T20:19:36.341Z,19.75
2023-04-12T20:22:25.388Z,19.17
2023-04-12T20:25:14.828Z,18.88
2023-04-12T20:28:05.889Z,18.63
2023-04-12T20:30:54.886Z,19.90
2023-04-12T20:33:44.245Z,22.90
2023-04-12T20:36:33.501Z,19.98
2023-04-12T20:39:22.695Z,21.45
2023-04-12T20:42:12.527Z,19.40
2023-04-12T20:45:02.815Z,19.80
2023-04-12T20:47:52.031Z,18.50
2023-04-12T20:50:41.177Z,21.35
2023-04-12T20:53:30.416Z,20.48
2023-04-12T20:56:19.975Z,20.63
2023-04-12T20:59:10.527Z,21.77
2023-04-12T21:02:01.119Z,23.27
2023-04-12T21:04:50.955Z,23.27
2023-04-12T21:07:41.427Z,26.35
2023-04-12T21:10:30.166Z,23.55
2023-04-12T21:13:21.945Z,21.63
2023-04-12T21:16:14.619Z,21.27
2023-04-12T21:19:05.260Z,21.13
2023-04-12T21:21:54.157Z,20.80
2023-04-12T21:24:45.399Z,20.38
2023-04-12T21:27:34.140Z,23.13
2023-04-12T21:30:23.164Z,21.38
2023-04-12T21:33:13.283Z,19.92
2023-04-12T21:36:03.544Z,23.27
2023-04-12T21:38:52.747Z,20.95
2023-04-12T21:41:41.450Z,20.05
2023-04-12T21:44:30.205Z,25.15
2023-04-12T21:47:19.531Z,22.80
2023-04-12T21:50:09.988Z,20.35
2023-04-12T21:53:00.063Z,19.10
2023-04-12T21:55:49.754Z,21.10
2023-04-12T21:58:38.560Z,21.95
2023-04-12T22:01:27.394Z,20.98
2023-04-12T22:04:16.475Z,20.70
2023-04-12T22:07:06.758Z,21.80
2023-04-12T22:09:58.573Z,23.35
2023-04-12T22:12:50.287Z,20.38
2023-04-12T22:15:39.012Z,21.08
2023-04-12T22:18:27.814Z,19.75
2023-04-12T22:21:16.900Z,19.38
2023-04-12T22:24:08.207Z,19.95
2023-04-12T22:26:58.594Z,20.98
2023-04-12T22:29:49.898Z,21.05
2023-04-12T22:32:38.779Z,17.00
2023-04-12T22:35:30.186Z,23.13
2023-04-12T22:38:19.522Z,25.58
2023-04-12T22:41:08.363Z,23.17
2023-04-12T22:44:03.007Z,22.48
2023-04-12T22:46:54.451Z,38.75
2023-04-12T22:49:50.434Z,27.70
2023-04-12T22:52:40.485Z,29.40
2023-04-12T22:55:29.380Z,27.48
2023-04-12T22:58:18.187Z,22.75
2023-04-12T23:01:11.065Z,24.73
2023-04-12T23:04:01.153Z,26.27
2023-04-12T23:06:55.270Z,22.08
2023-04-12T23:09:45.507Z,19.95
2023-04-12T23:12:34.332Z,19.38
2023-04-12T23:15:24.160Z,22.02
2023-04-12T23:18:14.520Z,19.55
2023-04-12T23:21:03.523Z,23.33
2023-04-12T23:23:52.705Z,23.58
2023-04-12T23:26:41.437Z,19.05
2023-04-12T23:29:30.251Z,22.02
2023-04-12T23:32:18.985Z,23.48
2023-04-12T23:35:10.334Z,18.20
2023-04-12T23:37:59.279Z,22.60
2023-04-12T23:40:51.004Z,21.33
2023-04-12T23:43:39.770Z,21.38
2023-04-12T23:46:28.532Z,23.58
2023-04-12T23:49:17.315Z,23.80
2023-04-12T23:52:07.537Z,27.38
2023-04-12T23:54:56.416Z,21.90
2023-04-12T23:57:45.941Z,22.38
